Time;durP1;ratioP1;P1;durP2;ratioP2;P2;SDS_P1;SDS_P2;PMS_P1;PMS_P2;Temp;Humidity;BMP_temperature;BMP_pressure;BME280_temperature;BME280_humidity;BME280_pressure;Samples;Min_cycle;Max_cycle;Signal;HPM_P1;HPM_P2
2022/09/15 00:00:00;;;;;;;2.60;1.90;;;21.80;99.90;;;;;;4182051;28;20220;-74
2022/09/15 00:02:04;;;;;;;2.58;2.03;;;21.80;99.90;;;;;;4181339;28;20212;-74
2022/09/15 00:04:07;;;;;;;2.22;2.00;;;21.80;99.90;;;;;;4181823;28;20208;-74
2022/09/15 00:06:09;;;;;;;2.63;2.03;;;21.80;99.90;;;;;;4181819;28;20583;-74
2022/09/15 00:08:12;;;;;;;2.10;1.90;;;21.80;99.90;;;;;;4181394;28;20265;-74
2022/09/15 00:10:15;;;;;;;2.28;2.00;;;21.80;99.90;;;;;;4180655;28;20232;-74
2022/09/15 00:12:17;;;;;;;2.42;1.73;;;21.70;99.90;;;;;;4180455;28;20281;-75
2022/09/15 00:14:20;;;;;;;2.50;2.05;;;21.80;99.90;;;;;;4179893;28;20216;-75
2022/09/15 00:16:26;;;;;;;2.47;2.28;;;21.80;99.90;;;;;;4180179;28;20212;-74
2022/09/15 00:18:30;;;;;;;2.38;2.03;;;21.70;99.90;;;;;;4178966;28;20224;-74
2022/09/15 00:20:32;;;;;;;2.25;2.05;;;21.70;99.90;;;;;;4180010;28;20228;-74
2022/09/15 00:22:34;;;;;;;2.13;1.92;;;21.70;99.90;;;;;;4180174;28;20215;-74
2022/09/15 00:24:37;;;;;;;2.25;2.00;;;21.80;99.90;;;;;;4178671;28;20216;-74
2022/09/15 00:26:39;;;;;;;2.60;2.17;;;21.70;99.90;;;;;;4180565;28;20216;-74
2022/09/15 00:28:42;;;;;;;2.28;1.70;;;21.70;99.90;;;;;;4180416;28;20265;-74
2022/09/15 00:30:47;;;;;;;2.22;1.98;;;21.70;99.90;;;;;;4180084;28;20639;-74
2022/09/15 00:32:50;;;;;;;2.60;1.73;;;21.70;99.90;;;;;;4179880;28;20219;-74
2022/09/15 00:34:53;;;;;;;2.10;1.90;;;21.70;99.90;;;;;;4179614;28;20219;-74
2022/09/15 00:36:56;;;;;;;2.83;2.05;;;21.70;99.90;;;;;;4176529;28;20224;-74
2022/09/15 00:38:58;;;;;;;2.20;2.00;;;21.70;99.90;;;;;;4179954;28;20265;-74
2022/09/15 00:41:01;;;;;;;2.45;2.15;;;21.70;99.90;;;;;;4179436;28;20246;-75
2022/09/15 00:43:08;;;;;;;2.67;2.10;;;21.70;99.90;;;;;;4179916;28;20574;-74
2022/09/15 00:45:16;;;;;;;2.40;2.20;;;21.70;99.90;;;;;;4179602;28;20758;-74
2022/09/15 00:47:20;;;;;;;2.45;1.95;;;21.70;99.90;;;;;;4180118;28;20210;-74
2022/09/15 00:49:26;;;;;;;2.40;2.20;;;21.70;99.90;;;;;;4178025;28;20220;-74
2022/09/15 00:51:35;;;;;;;2.03;1.83;;;21.70;99.90;;;;;;4180453;28;20212;-74
2022/09/15 00:53:38;;;;;;;2.33;2.08;;;21.70;99.90;;;;;;4177787;28;20651;-74
2022/09/15 00:55:44;;;;;;;2.35;1.85;;;21.70;99.90;;;;;;4180176;28;20204;-74
2022/09/15 00:57:49;;;;;;;3.28;2.03;;;21.70;99.90;;;;;;4180876;28;20212;-74
2022/09/15 00:59:53;;;;;;;2.90;2.03;;;21.70;99.90;;;;;;4179804;28;20204;-74
2022/09/15 01:01:59;;;;;;;1.95;1.65;;;21.70;99.90;;;;;;4180142;28;20211;-74
2022/09/15 01:04:02;;;;;;;2.40;2.00;;;21.70;99.90;;;;;;4180338;28;20216;-74
2022/09/15 01:06:09;;;;;;;2.58;2.17;;;21.70;99.90;;;;;;4179629;28;20325;-74
2022/09/15 01:08:17;;;;;;;3.42;1.95;;;21.70;99.90;;;;;;4180164;28;20258;-74
2022/09/15 01:10:24;;;;;;;2.72;2.13;;;21.70;99.90;;;;;;4179001;28;20285;-74
2022/09/15 01:12:28;;;;;;;2.97;2.10;;;21.70;99.90;;;;;;4181120;28;20216;-74
2022/09/15 01:14:30;;;;;;;2.65;2.20;;;21.70;99.90;;;;;;4181210;28;20274;-74
2022/09/15 01:16:43;;;;;;;2.90;2.08;;;21.70;99.90;;;;;;4181341;28;20269;-74
2022/09/15 01:18:57;;;;;;;2.95;2.08;;;21.70;99.90;;;;;;4182367;28;20212;-74
2022/09/15 01:21:10;;;;;;;2.38;1.88;;;21.70;99.90;;;;;;4165741;28;20270;-74
2022/09/15 01:23:37;;;;;;;3.15;2.03;;;21.70;99.90;;;;;;4181280;28;20269;-74
2022/09/15 01:26:12;;;;;;;2.55;2.03;;;21.70;99.90;;;;;;4180847;28;20607;-74
2022/09/15 01:28:41;;;;;;;2.67;2.08;;;21.70;99.90;;;;;;4178583;28;20238;-73
2022/09/15 01:30:50;;;;;;;2.65;1.92;;;21.70;99.90;;;;;;4181009;28;20789;-74
2022/09/15 01:33:07;;;;;;;2.35;2.15;;;21.60;99.90;;;;;;4181054;28;20572;-74
2022/09/15 01:35:20;;;;;;;2.20;2.00;;;21.60;99.90;;;;;;4166404;28;20278;-74
2022/09/15 01:37:30;;;;;;;2.70;2.20;;;21.70;99.90;;;;;;4180357;28;20559;-74
2022/09/15 01:39:37;;;;;;;3.20;2.10;;;21.70;99.90;;;;;;4180752;28;20208;-74
2022/09/15 01:41:47;;;;;;;2.13;1.92;;;21.60;99.90;;;;;;4180533;28;20702;-74
2022/09/15 01:43:54;;;;;;;4.00;2.38;;;21.70;99.90;;;;;;4176296;28;20208;-74
2022/09/15 01:45:59;;;;;;;3.75;2.05;;;21.60;99.90;;;;;;4178570;28;20710;-74
2022/09/15 01:48:06;;;;;;;2.33;2.05;;;21.60;99.90;;;;;;4179057;28;20215;-74
2022/09/15 01:50:11;;;;;;;2.47;1.73;;;21.60;99.90;;;;;;4178628;28;20235;-74
2022/09/15 01:52:16;;;;;;;2.67;2.15;;;21.60;99.90;;;;;;4179118;28;20212;-74
2022/09/15 01:54:21;;;;;;;2.67;2.22;;;21.60;99.90;;;;;;4178256;28;20680;-74
2022/09/15 01:56:23;;;;;;;2.60;1.98;;;21.60;99.90;;;;;;4179269;28;20220;-74
2022/09/15 01:58:26;;;;;;;2.50;2.08;;;21.60;99.90;;;;;;4179115;28;20694;-74
2022/09/15 02:00:30;;;;;;;1.80;1.70;;;21.60;99.90;;;;;;4177967;28;20208;-74
2022/09/15 02:02:37;;;;;;;2.30;2.10;;;21.70;99.90;;;;;;4177805;28;20223;-74
2022/09/15 02:04:45;;;;;;;2.75;2.20;;;21.60;99.90;;;;;;4178778;28;20273;-74
2022/09/15 02:06:55;;;;;;;4.43;2.22;;;21.60;99.90;;;;;;4146137;28;20220;-74
2022/09/15 02:09:02;;;;;;;2.85;2.30;;;21.60;99.90;;;;;;4146084;28;20259;-74
2022/09/15 02:11:13;;;;;;;2.72;2.33;;;21.60;99.90;;;;;;4145007;28;20236;-74
2022/09/15 02:13:20;;;;;;;4.10;2.10;;;21.60;99.90;;;;;;4146457;28;20960;-74
2022/09/15 02:15:28;;;;;;;2.22;2.03;;;21.60;99.90;;;;;;4146408;28;20213;-75
2022/09/15 02:17:34;;;;;;;2.10;1.90;;;21.60;99.90;;;;;;4146549;28;20657;-75
2022/09/15 02:19:40;;;;;;;2.20;2.00;;;21.60;99.90;;;;;;4146136;28;20271;-74
2022/09/15 02:21:52;;;;;;;2.85;2.40;;;21.50;99.90;;;;;;4145955;28;20206;-74
2022/09/15 02:24:02;;;;;;;4.75;2.30;;;21.60;99.90;;;;;;4145777;28;21018;-74
2022/09/15 02:26:11;;;;;;;2.35;2.10;;;21.60;99.90;;;;;;4145973;28;20267;-74
2022/09/15 02:28:16;;;;;;;2.28;1.80;;;21.60;99.90;;;;;;4146182;28;20213;-74
2022/09/15 02:30:19;;;;;;;2.30;2.05;;;21.60;99.90;;;;;;4146022;28;20217;-74
2022/09/15 02:32:24;;;;;;;3.00;1.90;;;21.60;99.90;;;;;;4145768;28;20213;-74
2022/09/15 02:34:31;;;;;;;2.40;2.00;;;21.60;99.90;;;;;;4145440;28;20263;-74
2022/09/15 02:36:34;;;;;;;2.20;1.98;;;21.60;99.90;;;;;;4145619;28;20216;-75
2022/09/15 02:38:41;;;;;;;2.28;1.80;;;21.60;99.90;;;;;;4145882;28;20271;-75
2022/09/15 02:40:44;;;;;;;2.45;1.90;;;21.50;99.90;;;;;;4145942;28;20209;-75
2022/09/15 02:42:53;;;;;;;2.40;2.17;;;21.60;99.90;;;;;;4145339;28;20677;-75
2022/09/15 02:44:55;;;;;;;2.22;1.90;;;21.60;99.90;;;;;;4143522;28;20271;-75
2022/09/15 02:46:59;;;;;;;2.22;2.03;;;21.60;99.90;;;;;;4145685;28;20267;-75
2022/09/15 02:49:01;;;;;;;2.97;2.10;;;21.50;99.90;;;;;;4145336;28;20224;-75
2022/09/15 02:51:05;;;;;;;2.97;2.00;;;21.60;99.90;;;;;;4145804;28;20245;-75
2022/09/15 02:53:07;;;;;;;2.60;2.33;;;21.60;99.90;;;;;;4145366;28;20271;-75
2022/09/15 02:55:10;;;;;;;3.85;2.10;;;21.60;99.90;;;;;;4145322;28;20225;-75
2022/09/15 02:57:13;;;;;;;3.78;2.33;;;21.60;99.90;;;;;;4145156;28;20225;-75
2022/09/15 02:59:15;;;;;;;2.70;2.20;;;21.60;99.90;;;;;;4145969;28;21493;-74
2022/09/15 03:01:18;;;;;;;2.22;2.03;;;21.60;99.90;;;;;;4145480;28;20205;-75
2022/09/15 03:03:20;;;;;;;2.60;2.40;;;21.50;99.90;;;;;;4145566;28;20344;-74
2022/09/15 03:05:25;;;;;;;2.17;1.98;;;21.60;99.90;;;;;;4145079;28;20287;-75
2022/09/15 03:07:29;;;;;;;2.13;1.92;;;21.60;99.90;;;;;;4145865;28;20260;-75
2022/09/15 03:09:31;;;;;;;2.22;2.03;;;21.60;99.90;;;;;;4142707;28;20216;-73
2022/09/15 03:11:34;;;;;;;2.38;2.00;;;21.60;99.90;;;;;;4145329;28;20229;-73
2022/09/15 03:13:36;;;;;;;2.40;2.20;;;21.60;99.90;;;;;;4145777;28;20662;-73
2022/09/15 03:15:39;;;;;;;3.30;2.15;;;21.60;99.90;;;;;;4145523;28;20209;-73
2022/09/15 03:17:43;;;;;;;3.67;2.20;;;21.60;99.90;;;;;;4145855;28;20213;-73
2022/09/15 03:19:45;;;;;;;3.28;2.70;;;21.60;99.90;;;;;;4145622;28;20205;-74
2022/09/15 03:21:47;;;;;;;3.30;2.22;;;21.60;99.90;;;;;;4145507;28;20709;-74
2022/09/15 03:23:51;;;;;;;3.28;2.47;;;21.60;99.90;;;;;;4144646;28;20221;-74
2022/09/15 03:25:54;;;;;;;2.83;2.15;;;21.60;99.90;;;;;;4151331;28;20279;-74
2022/09/15 03:27:57;;;;;;;3.10;2.03;;;21.60;99.90;;;;;;4145564;28;20662;-74
2022/09/15 03:29:59;;;;;;;2.47;2.25;;;21.60;99.90;;;;;;4145789;28;20244;-74
2022/09/15 03:32:02;;;;;;;2.33;2.13;;;21.60;99.90;;;;;;4145318;28;21041;-74
2022/09/15 03:34:04;;;;;;;4.15;2.60;;;21.60;99.90;;;;;;4145647;28;20218;-74
2022/09/15 03:36:08;;;;;;;3.17;2.13;;;21.60;99.90;;;;;;4145385;28;20221;-74
2022/09/15 03:38:10;;;;;;;2.30;2.10;;;21.60;99.90;;;;;;4145219;28;20221;-74
2022/09/15 03:40:13;;;;;;;2.40;1.88;;;21.60;99.90;;;;;;4145291;28;20209;-74
2022/09/15 03:42:16;;;;;;;3.00;2.10;;;21.60;99.90;;;;;;4145487;28;20205;-74
2022/09/15 03:44:18;;;;;;;2.30;2.10;;;21.50;99.90;;;;;;4143307;28;20217;-74
2022/09/15 03:46:21;;;;;;;3.10;2.33;;;21.60;99.90;;;;;;4145717;28;20220;-74
2022/09/15 03:48:23;;;;;;;2.38;2.00;;;21.50;99.90;;;;;;4145026;28;20221;-74
2022/09/15 03:50:25;;;;;;;2.72;2.17;;;21.60;99.90;;;;;;4145088;28;20292;-74
2022/09/15 03:52:31;;;;;;;2.90;2.28;;;21.60;99.90;;;;;;4145550;28;20906;-74
2022/09/15 03:54:33;;;;;;;4.20;1.98;;;21.50;99.90;;;;;;4145620;28;20256;-74
2022/09/15 03:56:37;;;;;;;3.58;2.20;;;21.50;99.90;;;;;;4145200;28;20268;-74
2022/09/15 03:58:39;;;;;;;2.70;2.10;;;21.50;99.90;;;;;;4145309;28;20268;-74
2022/09/15 04:00:42;;;;;;;3.25;2.10;;;21.50;99.90;;;;;;4142594;28;20981;-73
2022/09/15 04:02:45;;;;;;;2.47;2.00;;;21.50;99.90;;;;;;4145781;28;20256;-73
2022/09/15 04:04:48;;;;;;;3.08;2.30;;;21.50;99.90;;;;;;4145046;28;20264;-74
2022/09/15 04:06:50;;;;;;;3.15;2.17;;;21.50;99.90;;;;;;4145233;28;20217;-74
2022/09/15 04:08:53;;;;;;;2.45;2.17;;;21.50;99.90;;;;;;4145037;28;20213;-74
2022/09/15 04:10:56;;;;;;;3.47;2.53;;;21.50;99.90;;;;;;4146635;28;20669;-74
2022/09/15 04:12:59;;;;;;;2.67;2.10;;;21.50;99.90;;;;;;4148441;28;20257;-73
2022/09/15 04:15:03;;;;;;;3.25;2.20;;;21.60;99.90;;;;;;4148715;28;20221;-74
2022/09/15 04:17:05;;;;;;;2.88;2.30;;;21.60;99.90;;;;;;4146430;28;20229;-74
2022/09/15 04:19:07;;;;;;;2.10;1.85;;;21.60;99.90;;;;;;4148271;28;20244;-74
2022/09/15 04:21:12;;;;;;;3.60;2.25;;;21.50;99.90;;;;;;4147689;28;20217;-73
2022/09/15 04:23:15;;;;;;;2.30;1.95;;;21.50;99.90;;;;;;4150960;28;20241;-73
2022/09/15 04:25:17;;;;;;;2.80;1.90;;;21.50;99.90;;;;;;4147502;28;20217;-74
2022/09/15 04:27:20;;;;;;;3.13;2.22;;;21.50;99.90;;;;;;4148981;28;20279;-73
2022/09/15 04:29:23;;;;;;;2.20;2.00;;;21.50;99.90;;;;;;4148085;28;20295;-74
2022/09/15 04:31:25;;;;;;;2.58;2.10;;;21.50;99.90;;;;;;4147855;28;20506;-74
2022/09/15 04:33:28;;;;;;;3.00;2.38;;;21.50;99.90;;;;;;4146843;28;20260;-74
2022/09/15 04:35:30;;;;;;;3.38;2.22;;;21.50;99.90;;;;;;4144301;28;20244;-74
2022/09/15 04:37:33;;;;;;;2.83;2.17;;;21.50;99.90;;;;;;4147809;28;20213;-74
2022/09/15 04:39:35;;;;;;;2.65;2.30;;;21.50;99.90;;;;;;4148000;28;20209;-75
2022/09/15 04:41:37;;;;;;;2.70;2.28;;;21.50;99.90;;;;;;4147850;28;20280;-74
2022/09/15 04:43:40;;;;;;;2.75;2.28;;;21.50;99.90;;;;;;4147756;28;20217;-74
2022/09/15 04:45:44;;;;;;;2.45;2.25;;;21.50;99.90;;;;;;4148046;28;20209;-75
2022/09/15 04:47:47;;;;;;;2.60;2.10;;;21.50;99.90;;;;;;4147529;28;20217;-74
2022/09/15 04:49:49;;;;;;;2.92;2.17;;;21.50;99.90;;;;;;4147410;28;20662;-74
2022/09/15 04:51:52;;;;;;;2.35;2.15;;;21.50;99.90;;;;;;4145199;28;20240;-74
2022/09/15 04:53:55;;;;;;;2.47;2.15;;;21.50;99.90;;;;;;4148273;28;20260;-74
2022/09/15 04:56:04;;;;;;;2.75;2.20;;;21.50;99.90;;;;;;4147326;28;20717;-74
2022/09/15 04:58:06;;;;;;;2.10;1.90;;;21.50;99.90;;;;;;4147143;28;20209;-74
2022/09/15 05:00:10;;;;;;;2.85;2.35;;;21.50;99.90;;;;;;4147427;28;20221;-73
2022/09/15 05:02:14;;;;;;;2.60;2.10;;;21.50;99.90;;;;;;4147567;28;20275;-74
2022/09/15 05:04:16;;;;;;;2.97;2.38;;;21.50;99.90;;;;;;4147385;28;20221;-74
2022/09/15 05:06:21;;;;;;;2.47;1.90;;;21.50;99.90;;;;;;4159399;28;20572;-74
2022/09/15 05:08:23;;;;;;;3.13;2.00;;;21.40;99.90;;;;;;4161255;28;20286;-74
2022/09/15 05:10:25;;;;;;;2.35;2.00;;;21.40;99.90;;;;;;4162839;28;20213;-74
2022/09/15 05:12:28;;;;;;;2.47;2.05;;;21.40;99.90;;;;;;4163393;28;20228;-74
2022/09/15 05:14:30;;;;;;;3.45;2.40;;;21.40;99.90;;;;;;4163442;28;20700;-74
2022/09/15 05:16:32;;;;;;;2.92;2.13;;;21.40;99.90;;;;;;4162607;28;20272;-74
2022/09/15 05:18:36;;;;;;;3.42;2.20;;;21.40;99.90;;;;;;4162697;28;20217;-74
2022/09/15 05:20:38;;;;;;;3.22;2.03;;;21.40;99.90;;;;;;4162610;28;20212;-74
2022/09/15 05:22:40;;;;;;;2.78;2.20;;;21.40;99.90;;;;;;4160606;28;20212;-74
2022/09/15 05:24:43;;;;;;;3.22;2.25;;;21.40;99.90;;;;;;4160477;28;20695;-74
2022/09/15 05:26:45;;;;;;;2.72;2.00;;;21.40;99.90;;;;;;4163315;28;20780;-74
2022/09/15 05:28:47;;;;;;;2.13;1.92;;;21.40;99.90;;;;;;4163111;28;20742;-74
2022/09/15 05:30:50;;;;;;;3.38;2.13;;;21.40;99.90;;;;;;4163187;28;20630;-73
2022/09/15 05:32:53;;;;;;;2.53;2.17;;;21.40;99.90;;;;;;4163260;28;20697;-73
2022/09/15 05:34:57;;;;;;;2.42;2.00;;;21.40;99.90;;;;;;4162099;28;20216;-74
2022/09/15 05:36:59;;;;;;;2.50;2.30;;;21.40;99.90;;;;;;4163357;28;20216;-74
2022/09/15 05:39:02;;;;;;;2.65;2.30;;;21.40;99.90;;;;;;4163602;28;20204;-74
2022/09/15 05:41:06;;;;;;;2.58;1.80;;;21.40;99.90;;;;;;4163874;28;20224;-74
2022/09/15 05:43:08;;;;;;;2.40;2.00;;;21.40;99.90;;;;;;4162564;28;20270;-74
2022/09/15 05:45:10;;;;;;;2.60;2.08;;;21.40;99.90;;;;;;4163152;28;20554;-74
2022/09/15 05:47:13;;;;;;;2.08;1.90;;;21.40;99.90;;;;;;4162876;28;20665;-75
2022/09/15 05:49:15;;;;;;;2.88;2.17;;;21.40;99.90;;;;;;4162992;28;20204;-74
2022/09/15 05:51:19;;;;;;;3.00;2.05;;;21.40;99.90;;;;;;4162832;28;20208;-74
2022/09/15 05:53:21;;;;;;;2.25;2.03;;;21.40;99.90;;;;;;4162625;28;20818;-74
2022/09/15 05:55:23;;;;;;;2.03;1.83;;;21.40;99.90;;;;;;4163786;28;20213;-74
2022/09/15 05:57:26;;;;;;;2.90;2.25;;;21.40;99.90;;;;;;4162812;28;20258;-74
2022/09/15 05:59:29;;;;;;;2.20;2.00;;;21.40;99.90;;;;;;4160647;28;20319;-74
2022/09/15 06:01:31;;;;;;;2.90;2.13;;;21.40;99.90;;;;;;4162726;28;20235;-75
2022/09/15 06:03:34;;;;;;;2.42;1.88;;;21.40;99.90;;;;;;4163150;28;20212;-74
2022/09/15 06:05:36;;;;;;;2.67;2.20;;;21.40;99.90;;;;;;4162492;28;20278;-74
2022/09/15 06:07:40;;;;;;;2.65;2.30;;;21.40;99.90;;;;;;4162878;28;20590;-74
2022/09/15 06:09:42;;;;;;;2.47;2.05;;;21.40;99.90;;;;;;4162874;28;20205;-74
2022/09/15 06:11:45;;;;;;;2.13;1.90;;;21.40;99.90;;;;;;4162863;28;20212;-73
2022/09/15 06:13:47;;;;;;;2.55;2.20;;;21.30;99.90;;;;;;4161352;28;20266;-73
2022/09/15 06:15:50;;;;;;;2.35;1.90;;;21.40;99.90;;;;;;4159562;28;20264;-74
2022/09/15 06:17:52;;;;;;;2.40;2.00;;;21.40;99.90;;;;;;4162888;28;20737;-74
2022/09/15 06:19:55;;;;;;;2.50;2.15;;;21.40;99.90;;;;;;4162720;28;21673;-75
2022/09/15 06:21:58;;;;;;;2.35;2.15;;;21.40;99.90;;;;;;4162008;28;20609;-74
2022/09/15 06:24:05;;;;;;;2.75;2.20;;;21.40;99.90;;;;;;4162541;28;20208;-74
2022/09/15 06:26:12;;;;;;;2.80;2.33;;;21.40;99.90;;;;;;4161495;28;20614;-74
2022/09/15 06:28:14;;;;;;;2.53;2.20;;;21.40;99.90;;;;;;4162532;28;20239;-74
2022/09/15 06:30:17;;;;;;;3.60;2.13;;;21.40;99.90;;;;;;4162547;28;20596;-74
2022/09/15 06:32:20;;;;;;;1.85;1.70;;;21.40;99.90;;;;;;4161947;28;20224;-75
2022/09/15 06:34:22;;;;;;;2.65;2.22;;;21.40;99.90;;;;;;4159454;28;20638;-74
2022/09/15 06:36:26;;;;;;;2.25;2.05;;;21.40;99.90;;;;;;4162752;28;20216;-74
2022/09/15 06:38:28;;;;;;;3.78;2.42;;;21.40;99.90;;;;;;4161860;28;20224;-75
2022/09/15 06:40:32;;;;;;;2.53;2.20;;;21.40;99.90;;;;;;4161998;28;20212;-73
2022/09/15 06:42:35;;;;;;;2.67;2.40;;;21.40;99.90;;;;;;4162426;28;20294;-74
2022/09/15 06:44:37;;;;;;;2.92;2.20;;;21.40;99.90;;;;;;4162273;28;20212;-74
2022/09/15 06:46:39;;;;;;;3.25;2.25;;;21.40;99.90;;;;;;4161887;28;20217;-74
2022/09/15 06:48:42;;;;;;;2.72;1.80;;;21.40;99.90;;;;;;4162124;28;20274;-74
2022/09/15 06:50:45;;;;;;;3.20;2.00;;;21.40;99.90;;;;;;4160085;28;20278;-74
2022/09/15 06:52:47;;;;;;;2.38;1.98;;;21.40;99.90;;;;;;4160609;28;20227;-74
2022/09/15 06:54:50;;;;;;;3.85;2.55;;;21.40;99.90;;;;;;4156256;28;20267;-77
2022/09/15 06:56:53;;;;;;;14.13;8.15;;;21.30;99.90;;;;;;4159171;28;20728;-74
2022/09/15 06:58:56;;;;;;;12.98;10.82;;;21.10;99.90;;;;;;4154239;28;20601;-74
2022/09/15 07:01:02;;;;;;;19.77;12.63;;;20.90;99.90;;;;;;4161957;28;20216;-74
2022/09/15 07:03:04;;;;;;;18.40;13.32;;;20.70;99.90;;;;;;4156930;28;20223;-74
2022/09/15 07:05:07;;;;;;;17.83;14.07;;;20.70;99.90;;;;;;4162307;28;20278;-74
2022/09/15 07:07:09;;;;;;;20.30;14.85;;;20.70;99.90;;;;;;4162777;28;20839;-76
2022/09/15 07:09:12;;;;;;;19.40;14.18;;;20.50;99.90;;;;;;4162388;28;20224;-75
2022/09/15 07:11:15;;;;;;;18.45;14.77;;;20.40;99.90;;;;;;4162617;28;20220;-74
2022/09/15 07:13:18;;;;;;;18.73;14.00;;;20.40;99.90;;;;;;4164642;28;20727;-76
2022/09/15 07:15:24;;;;;;;18.73;15.50;;;20.40;99.90;;;;;;4158284;28;20216;-75
2022/09/15 07:17:28;;;;;;;22.50;15.63;;;20.30;99.90;;;;;;4155759;28;20271;-75
2022/09/15 07:19:30;;;;;;;17.25;14.68;;;20.30;99.90;;;;;;4162031;28;20212;-75
2022/09/15 07:21:34;;;;;;;19.15;14.25;;;20.30;99.90;;;;;;4178672;28;20216;-76
2022/09/15 07:23:37;;;;;;;20.92;15.10;;;20.30;99.90;;;;;;4174224;28;20234;-76
2022/09/15 07:25:44;;;;;;;21.40;14.52;;;20.20;99.90;;;;;;4180885;28;20216;-76
2022/09/15 07:27:46;;;;;;;18.15;15.00;;;20.20;99.90;;;;;;4177756;28;20666;-76
2022/09/15 07:29:52;;;;;;;21.15;15.43;;;20.10;99.90;;;;;;4162446;28;20266;-76
2022/09/15 07:31:54;;;;;;;18.42;14.45;;;20.10;99.90;;;;;;4175194;28;20216;-75
2022/09/15 07:33:57;;;;;;;16.85;13.65;;;20.10;99.90;;;;;;4171965;28;20321;-74
2022/09/15 07:36:01;;;;;;;16.48;13.95;;;20.20;99.90;;;;;;4167393;28;20561;-74
2022/09/15 07:38:04;;;;;;;19.67;14.90;;;20.30;99.90;;;;;;4167838;28;20225;-76
2022/09/15 07:40:07;;;;;;;16.90;13.50;;;20.20;99.90;;;;;;4172703;28;20220;-74
2022/09/15 07:42:09;;;;;;;17.63;14.95;;;20.20;99.90;;;;;;4171689;28;20258;-73
2022/09/15 07:44:12;;;;;;;24.60;15.05;;;20.20;99.90;;;;;;4169340;28;20204;-73
2022/09/15 07:46:16;;;;;;;18.02;14.75;;;20.30;99.90;;;;;;4177667;28;20620;-73
2022/09/15 07:48:18;;;;;;;20.70;14.75;;;20.30;99.90;;;;;;4177692;28;20647;-74
2022/09/15 07:50:21;;;;;;;18.48;14.73;;;20.50;99.90;;;;;;4180380;28;20220;-74
2022/09/15 07:52:23;;;;;;;16.55;14.85;;;20.40;99.90;;;;;;4178162;28;20309;-73
2022/09/15 07:54:25;;;;;;;23.85;15.07;;;20.40;99.90;;;;;;4176996;28;20289;-74
2022/09/15 07:56:27;;;;;;;27.42;15.95;;;20.40;99.90;;;;;;4171078;28;20216;-73
2022/09/15 07:58:32;;;;;;;19.38;14.50;;;20.30;99.90;;;;;;4177921;28;20220;-74
2022/09/15 08:00:34;;;;;;;18.25;15.45;;;20.40;99.90;;;;;;4173494;28;20254;-73
2022/09/15 08:02:38;;;;;;;20.65;14.35;;;20.30;99.90;;;;;;4166135;28;20220;-75
2022/09/15 08:04:40;;;;;;;25.70;14.73;;;20.50;99.90;;;;;;4164436;28;22161;-74
2022/09/15 08:06:43;;;;;;;19.33;14.43;;;20.40;99.90;;;;;;4162998;28;20298;-74
2022/09/15 08:08:45;;;;;;;17.60;13.25;;;20.50;99.90;;;;;;4158609;28;20701;-73
2022/09/15 08:10:48;;;;;;;19.05;14.98;;;20.60;99.90;;;;;;4161977;28;21223;-76
2022/09/15 08:12:50;;;;;;;15.85;13.48;;;20.60;99.90;;;;;;4163955;28;20220;-74
2022/09/15 08:14:52;;;;;;;18.98;14.50;;;20.50;99.90;;;;;;4160567;28;20235;-75
2022/09/15 08:16:55;;;;;;;19.55;14.45;;;20.50;99.90;;;;;;4164908;28;20216;-74
2022/09/15 08:18:59;;;;;;;23.48;14.95;;;20.50;99.90;;;;;;4164318;28;20227;-75
2022/09/15 08:21:06;;;;;;;22.70;14.02;;;20.50;99.90;;;;;;4160184;28;20273;-75
2022/09/15 08:23:08;;;;;;;19.08;13.70;;;20.50;99.90;;;;;;4160383;28;20281;-74
2022/09/15 08:25:10;;;;;;;17.70;14.18;;;20.50;99.90;;;;;;4156483;28;20225;-74
2022/09/15 08:27:13;;;;;;;21.70;14.18;;;20.50;99.90;;;;;;4126452;28;20216;-75
2022/09/15 08:29:16;;;;;;;20.10;14.80;;;20.50;99.90;;;;;;4148690;28;20276;-74
2022/09/15 08:31:32;;;;;;;17.75;13.68;;;20.50;99.90;;;;;;4148529;28;20213;-74
2022/09/15 08:33:34;;;;;;;18.60;13.45;;;20.50;99.90;;;;;;4163686;28;20216;-74
2022/09/15 08:35:38;;;;;;;16.95;13.85;;;20.60;99.90;;;;;;4171196;28;20277;-75
2022/09/15 08:37:40;;;;;;;21.00;14.50;;;20.50;99.90;;;;;;4177619;28;20208;-75
2022/09/15 08:39:44;;;;;;;17.25;13.68;;;20.60;99.90;;;;;;4168305;28;20220;-74
2022/09/15 08:41:49;;;;;;;22.70;14.48;;;20.60;99.90;;;;;;4173607;28;20224;-78
2022/09/15 08:43:58;;;;;;;23.13;14.35;;;20.50;99.90;;;;;;4178764;28;21054;-80
2022/09/15 08:46:04;;;;;;;15.30;11.93;;;20.60;99.90;;;;;;4171670;28;20215;-81
2022/09/15 08:48:07;;;;;;;19.23;11.15;;;20.80;99.90;;;;;;4175637;28;20211;-79
2022/09/15 08:50:19;;;;;;;11.90;9.73;;;21.00;99.90;;;;;;4162577;28;20220;-77
2022/09/15 08:52:29;;;;;;;11.18;7.90;;;21.10;99.90;;;;;;4159186;28;20220;-80
2022/09/15 08:54:33;;;;;;;9.43;6.97;;;21.20;99.90;;;;;;4160609;28;20331;-78
2022/09/15 08:56:36;;;;;;;8.25;5.57;;;21.30;99.90;;;;;;4161041;28;20224;-77
2022/09/15 08:58:41;;;;;;;10.02;5.57;;;21.40;99.90;;;;;;4156204;28;20216;-78
2022/09/15 09:00:45;;;;;;;8.95;5.80;;;21.50;99.90;;;;;;4161446;28;20215;-78
2022/09/15 09:03:09;;;;;;;9.00;5.80;;;21.50;99.90;;;;;;4159879;28;20227;-83
2022/09/15 09:05:29;;;;;;;9.30;5.00;;;21.60;99.90;;;;;;4156154;28;20231;-78
2022/09/15 09:07:51;;;;;;;9.52;4.75;;;21.60;99.90;;;;;;4156879;28;20241;-78
2022/09/15 09:10:00;;;;;;;7.32;4.15;;;21.70;99.90;;;;;;4161605;28;20251;-80
2022/09/15 09:12:37;;;;;;;5.53;4.10;;;21.70;99.90;;;;;;4159100;28;20226;-77
2022/09/15 09:14:52;;;;;;;10.85;4.40;;;21.80;99.90;;;;;;4166208;28;20285;-77
2022/09/15 09:17:15;;;;;;;7.68;4.20;;;21.80;99.90;;;;;;4178097;28;20719;-77
2022/09/15 09:19:32;;;;;;;11.00;4.13;;;21.80;99.90;;;;;;4174420;28;20228;-77
2022/09/15 09:21:37;;;;;;;6.18;4.03;;;21.90;99.90;;;;;;4173456;28;20333;-75
2022/09/15 09:23:48;;;;;;;9.35;4.05;;;21.90;99.90;;;;;;4175403;28;20269;-76
2022/09/15 09:25:51;;;;;;;6.68;3.53;;;21.90;99.90;;;;;;4169915;28;20216;-76
2022/09/15 09:27:55;;;;;;;5.78;3.55;;;22.00;99.90;;;;;;4174063;28;20543;-75
2022/09/15 09:30:01;;;;;;;5.57;3.13;;;22.00;99.90;;;;;;4174675;28;20270;-73
2022/09/15 09:32:13;;;;;;;7.85;3.47;;;22.10;99.90;;;;;;4176201;28;20309;-77
2022/09/15 09:34:22;;;;;;;8.30;3.22;;;22.10;99.90;;;;;;4177242;28;20224;-76
2022/09/15 09:36:26;;;;;;;9.02;3.15;;;22.10;99.90;;;;;;4176238;28;20207;-80
2022/09/15 09:38:32;;;;;;;6.63;3.22;;;22.10;99.90;;;;;;4173883;28;20246;-77
2022/09/15 09:40:38;;;;;;;4.47;2.85;;;22.20;99.90;;;;;;4170271;28;20220;-74
2022/09/15 09:42:41;;;;;;;7.13;3.33;;;22.20;99.90;;;;;;4175654;28;20261;-77
2022/09/15 09:44:51;;;;;;;6.20;3.10;;;22.20;99.90;;;;;;4174793;28;20219;-78
2022/09/15 09:46:53;;;;;;;7.68;3.00;;;22.20;99.90;;;;;;4174874;28;20628;-80
2022/09/15 09:49:00;;;;;;;5.88;3.30;;;22.20;99.90;;;;;;4173768;28;20266;-78
2022/09/15 09:51:03;;;;;;;6.93;3.13;;;22.20;99.90;;;;;;4176536;28;20280;-80
2022/09/15 09:53:24;;;;;;;8.18;3.20;;;22.20;99.90;;;;;;4172735;28;20212;-80
2022/09/15 09:55:27;;;;;;;6.57;3.17;;;22.20;99.90;;;;;;4172729;28;20571;-74
2022/09/15 09:57:36;;;;;;;7.05;3.22;;;22.30;99.90;;;;;;4168698;28;20242;-76
2022/09/15 09:59:42;;;;;;;6.25;2.83;;;22.30;99.90;;;;;;4175040;28;20223;-77
2022/09/15 10:02:05;;;;;;;6.72;2.97;;;22.30;99.90;;;;;;4173380;28;20261;-76
2022/09/15 10:04:13;;;;;;;4.57;2.83;;;22.30;99.90;;;;;;4174272;28;20220;-75
2022/09/15 10:06:19;;;;;;;6.63;2.97;;;22.30;99.90;;;;;;4172008;28;20277;-75
2022/09/15 10:08:21;;;;;;;6.70;3.15;;;22.40;99.90;;;;;;4173595;28;20216;-78
2022/09/15 10:10:31;;;;;;;5.43;2.88;;;22.30;99.90;;;;;;4173558;28;20262;-77
2022/09/15 10:12:41;;;;;;;4.07;2.80;;;22.30;99.90;;;;;;4173226;28;20294;-76
2022/09/15 10:14:50;;;;;;;4.38;2.30;;;22.40;99.90;;;;;;4171965;28;20239;-76
2022/09/15 10:16:58;;;;;;;7.05;2.80;;;22.40;99.90;;;;;;4174617;28;20285;-77
2022/09/15 10:19:00;;;;;;;7.60;2.78;;;22.30;99.90;;;;;;4174104;28;20215;-77
2022/09/15 10:21:05;;;;;;;7.20;2.70;;;22.40;99.90;;;;;;4174893;28;20289;-78
2022/09/15 10:23:24;;;;;;;6.50;2.53;;;22.30;99.90;;;;;;4174416;28;20215;-77
2022/09/15 10:25:35;;;;;;;6.80;2.80;;;22.30;99.90;;;;;;4173269;28;20262;-75
2022/09/15 10:27:39;;;;;;;4.75;2.38;;;22.40;99.90;;;;;;4175794;28;20280;-73
2022/09/15 10:29:41;;;;;;;5.75;2.90;;;22.40;99.90;;;;;;4180231;28;21082;-74
2022/09/15 10:31:44;;;;;;;7.28;2.92;;;22.40;99.90;;;;;;4180219;28;20211;-77
2022/09/15 10:33:47;;;;;;;6.20;2.25;;;22.40;99.90;;;;;;4180774;28;20215;-76
2022/09/15 10:35:54;;;;;;;4.88;2.35;;;22.40;99.90;;;;;;4173780;28;20298;-76
2022/09/15 10:38:04;;;;;;;5.50;2.55;;;22.40;99.90;;;;;;4174908;28;20292;-76
2022/09/15 10:40:58;;;;;;;3.53;2.40;;;22.40;99.90;;;;;;4173883;28;20215;-75
2022/09/15 10:43:15;;;;;;;5.88;2.30;;;22.40;99.90;;;;;;4121706;28;20289;-79
2022/09/15 10:45:27;;;;;;;3.88;2.17;;;22.40;99.90;;;;;;4175179;28;20207;-79
2022/09/15 10:47:43;;;;;;;11.05;2.47;;;22.50;99.90;;;;;;4170768;28;20215;-78